sensor_id;sensor_type;location;lat;lon;timestamp;P1;durP1;ratioP1;P2;durP2;ratioP2
44137;SDS011;29800;55.942;37.314;2023-07-29T00:00:59;4.65;;;2.33;;
44137;SDS011;29800;55.942;37.314;2023-07-29T00:03:27;6.55;;;2.30;;
44137;SDS011;29800;55.942;37.314;2023-07-29T00:05:55;5.50;;;2.60;;
44137;SDS011;29800;55.942;37.314;2023-07-29T00:08:22;3.30;;;2.47;;
44137;SDS011;29800;55.942;37.314;2023-07-29T00:10:48;6.60;;;2.38;;
44137;SDS011;29800;55.942;37.314;2023-07-29T00:13:14;4.47;;;2.20;;
44137;SDS011;29800;55.942;37.314;2023-07-29T00:15:41;3.78;;;2.50;;
44137;SDS011;29800;55.942;37.314;2023-07-29T00:18:07;9.15;;;2.17;;
44137;SDS011;29800;55.942;37.314;2023-07-29T00:20:33;5.57;;;2.33;;
44137;SDS011;29800;55.942;37.314;2023-07-29T00:22:59;4.25;;;2.10;;
44137;SDS011;29800;55.942;37.314;2023-07-29T00:25:27;2.80;;;2.30;;
44137;SDS011;29800;55.942;37.314;2023-07-29T00:27:56;6.22;;;2.47;;
44137;SDS011;29800;55.942;37.314;2023-07-29T00:30:22;5.07;;;2.42;;
44137;SDS011;29800;55.942;37.314;2023-07-29T00:32:48;3.65;;;2.35;;
44137;SDS011;29800;55.942;37.314;2023-07-29T00:35:15;5.68;;;2.42;;
44137;SDS011;29800;55.942;37.314;2023-07-29T00:37:41;5.25;;;2.60;;
44137;SDS011;29800;55.942;37.314;2023-07-29T00:40:09;3.42;;;2.60;;
44137;SDS011;29800;55.942;37.314;2023-07-29T00:42:42;5.40;;;3.00;;
44137;SDS011;29800;55.942;37.314;2023-07-29T00:45:09;5.53;;;2.80;;
44137;SDS011;29800;55.942;37.314;2023-07-29T00:47:36;6.03;;;2.88;;
44137;SDS011;29800;55.942;37.314;2023-07-29T00:50:04;4.90;;;2.67;;
44137;SDS011;29800;55.942;37.314;2023-07-29T00:52:32;4.97;;;2.90;;
44137;SDS011;29800;55.942;37.314;2023-07-29T00:54:58;5.45;;;2.58;;
44137;SDS011;29800;55.942;37.314;2023-07-29T00:57:25;6.63;;;2.70;;
44137;SDS011;29800;55.942;37.314;2023-07-29T00:59:52;4.95;;;2.60;;
44137;SDS011;29800;55.942;37.314;2023-07-29T01:02:19;3.80;;;2.40;;
44137;SDS011;29800;55.942;37.314;2023-07-29T01:04:45;5.57;;;2.63;;
44137;SDS011;29800;55.942;37.314;2023-07-29T01:07:21;4.38;;;2.70;;
44137;SDS011;29800;55.942;37.314;2023-07-29T01:10:07;5.45;;;2.63;;
44137;SDS011;29800;55.942;37.314;2023-07-29T01:18:11;3.65;;;2.50;;
44137;SDS011;29800;55.942;37.314;2023-07-29T01:20:44;6.70;;;2.80;;
44137;SDS011;29800;55.942;37.314;2023-07-29T01:23:15;6.03;;;2.78;;
44137;SDS011;29800;55.942;37.314;2023-07-29T01:25:41;6.45;;;2.92;;
44137;SDS011;29800;55.942;37.314;2023-07-29T01:28:08;4.40;;;2.60;;
44137;SDS011;29800;55.942;37.314;2023-07-29T01:30:37;6.00;;;2.60;;
44137;SDS011;29800;55.942;37.314;2023-07-29T01:35:48;5.53;;;2.90;;
44137;SDS011;29800;55.942;37.314;2023-07-29T01:38:33;5.35;;;2.78;;
44137;SDS011;29800;55.942;37.314;2023-07-29T01:41:01;4.03;;;2.67;;
44137;SDS011;29800;55.942;37.314;2023-07-29T01:43:29;5.30;;;2.90;;
44137;SDS011;29800;55.942;37.314;2023-07-29T01:45:56;7.15;;;2.92;;
44137;SDS011;29800;55.942;37.314;2023-07-29T01:48:23;5.70;;;3.00;;
44137;SDS011;29800;55.942;37.314;2023-07-29T01:50:50;5.65;;;3.03;;
44137;SDS011;29800;55.942;37.314;2023-07-29T01:53:16;5.53;;;2.67;;
44137;SDS011;29800;55.942;37.314;2023-07-29T01:55:43;6.78;;;3.00;;
44137;SDS011;29800;55.942;37.314;2023-07-29T01:58:10;5.00;;;3.13;;
44137;SDS011;29800;55.942;37.314;2023-07-29T02:00:38;4.72;;;3.05;;
44137;SDS011;29800;55.942;37.314;2023-07-29T02:03:05;6.63;;;3.22;;
44137;SDS011;29800;55.942;37.314;2023-07-29T02:05:31;8.43;;;3.17;;
44137;SDS011;29800;55.942;37.314;2023-07-29T02:07:58;6.50;;;3.03;;
44137;SDS011;29800;55.942;37.314;2023-07-29T02:10:24;6.95;;;2.97;;
44137;SDS011;29800;55.942;37.314;2023-07-29T02:12:50;9.93;;;3.15;;
44137;SDS011;29800;55.942;37.314;2023-07-29T02:15:16;5.32;;;2.90;;
44137;SDS011;29800;55.942;37.314;2023-07-29T02:17:43;6.20;;;3.05;;
44137;SDS011;29800;55.942;37.314;2023-07-29T02:20:10;7.03;;;3.00;;
44137;SDS011;29800;55.942;37.314;2023-07-29T02:22:37;4.95;;;3.08;;
44137;SDS011;29800;55.942;37.314;2023-07-29T02:25:03;5.00;;;2.53;;
44137;SDS011;29800;55.942;37.314;2023-07-29T02:27:31;4.78;;;2.85;;
44137;SDS011;29800;55.942;37.314;2023-07-29T02:29:57;4.15;;;2.70;;
44137;SDS011;29800;55.942;37.314;2023-07-29T02:32:24;6.68;;;2.47;;
44137;SDS011;29800;55.942;37.314;2023-07-29T02:34:50;4.15;;;2.83;;
44137;SDS011;29800;55.942;37.314;2023-07-29T02:37:17;5.68;;;2.90;;
44137;SDS011;29800;55.942;37.314;2023-07-29T02:39:44;8.48;;;2.72;;
44137;SDS011;29800;55.942;37.314;2023-07-29T02:42:10;4.50;;;2.60;;
44137;SDS011;29800;55.942;37.314;2023-07-29T02:44:37;5.00;;;2.78;;
44137;SDS011;29800;55.942;37.314;2023-07-29T02:47:03;5.85;;;2.90;;
44137;SDS011;29800;55.942;37.314;2023-07-29T02:49:29;5.05;;;2.75;;
44137;SDS011;29800;55.942;37.314;2023-07-29T02:51:55;5.00;;;3.00;;
44137;SDS011;29800;55.942;37.314;2023-07-29T02:54:22;5.90;;;3.22;;
44137;SDS011;29800;55.942;37.314;2023-07-29T02:56:49;6.57;;;2.78;;
44137;SDS011;29800;55.942;37.314;2023-07-29T02:59:15;5.93;;;2.65;;
44137;SDS011;29800;55.942;37.314;2023-07-29T03:01:42;5.47;;;2.60;;
44137;SDS011;29800;55.942;37.314;2023-07-29T03:04:09;5.45;;;3.10;;
44137;SDS011;29800;55.942;37.314;2023-07-29T03:06:38;6.85;;;2.70;;
44137;SDS011;29800;55.942;37.314;2023-07-29T03:09:05;4.93;;;2.67;;
44137;SDS011;29800;55.942;37.314;2023-07-29T03:11:31;7.30;;;3.20;;
44137;SDS011;29800;55.942;37.314;2023-07-29T03:13:58;8.77;;;3.08;;
44137;SDS011;29800;55.942;37.314;2023-07-29T03:16:25;6.70;;;2.80;;
44137;SDS011;29800;55.942;37.314;2023-07-29T03:18:54;6.90;;;2.85;;
44137;SDS011;29800;55.942;37.314;2023-07-29T03:21:20;6.63;;;2.90;;
44137;SDS011;29800;55.942;37.314;2023-07-29T03:23:47;10.45;;;2.83;;
44137;SDS011;29800;55.942;37.314;2023-07-29T03:26:13;5.25;;;3.17;;
44137;SDS011;29800;55.942;37.314;2023-07-29T03:28:40;8.45;;;3.05;;
44137;SDS011;29800;55.942;37.314;2023-07-29T03:31:07;7.88;;;3.25;;
44137;SDS011;29800;55.942;37.314;2023-07-29T03:33:34;5.93;;;2.90;;
44137;SDS011;29800;55.942;37.314;2023-07-29T03:36:01;4.22;;;2.80;;
44137;SDS011;29800;55.942;37.314;2023-07-29T03:38:27;5.13;;;2.67;;
44137;SDS011;29800;55.942;37.314;2023-07-29T03:40:54;4.32;;;2.92;;
44137;SDS011;29800;55.942;37.314;2023-07-29T03:43:20;5.90;;;2.65;;
44137;SDS011;29800;55.942;37.314;2023-07-29T03:45:47;4.45;;;2.42;;
44137;SDS011;29800;55.942;37.314;2023-07-29T03:48:13;6.10;;;2.85;;
44137;SDS011;29800;55.942;37.314;2023-07-29T03:50:39;3.45;;;2.20;;
44137;SDS011;29800;55.942;37.314;2023-07-29T03:53:06;4.72;;;2.45;;
44137;SDS011;29800;55.942;37.314;2023-07-29T03:55:32;4.82;;;2.50;;
44137;SDS011;29800;55.942;37.314;2023-07-29T03:57:59;3.47;;;2.10;;
44137;SDS011;29800;55.942;37.314;2023-07-29T04:00:28;4.85;;;2.35;;
44137;SDS011;29800;55.942;37.314;2023-07-29T04:02:54;3.05;;;2.05;;
44137;SDS011;29800;55.942;37.314;2023-07-29T04:05:21;3.80;;;2.10;;
44137;SDS011;29800;55.942;37.314;2023-07-29T04:07:48;4.30;;;2.40;;
44137;SDS011;29800;55.942;37.314;2023-07-29T04:10:14;3.85;;;2.28;;
44137;SDS011;29800;55.942;37.314;2023-07-29T04:12:41;3.97;;;2.38;;
44137;SDS011;29800;55.942;37.314;2023-07-29T04:15:07;6.13;;;2.25;;
44137;SDS011;29800;55.942;37.314;2023-07-29T04:17:34;4.07;;;1.98;;
44137;SDS011;29800;55.942;37.314;2023-07-29T04:20:02;3.72;;;2.35;;
44137;SDS011;29800;55.942;37.314;2023-07-29T04:22:33;5.28;;;2.10;;
44137;SDS011;29800;55.942;37.314;2023-07-29T04:24:59;3.28;;;2.05;;
44137;SDS011;29800;55.942;37.314;2023-07-29T04:27:26;6.90;;;2.15;;
44137;SDS011;29800;55.942;37.314;2023-07-29T04:29:52;3.25;;;2.13;;
44137;SDS011;29800;55.942;37.314;2023-07-29T04:32:18;3.10;;;2.17;;
44137;SDS011;29800;55.942;37.314;2023-07-29T04:34:44;4.90;;;2.10;;
44137;SDS011;29800;55.942;37.314;2023-07-29T04:37:11;3.40;;;2.10;;
44137;SDS011;29800;55.942;37.314;2023-07-29T04:39:37;7.22;;;2.00;;
44137;SDS011;29800;55.942;37.314;2023-07-29T04:42:03;5.55;;;2.05;;
44137;SDS011;29800;55.942;37.314;2023-07-29T04:44:30;5.82;;;2.10;;
44137;SDS011;29800;55.942;37.314;2023-07-29T04:46:56;3.65;;;2.05;;
44137;SDS011;29800;55.942;37.314;2023-07-29T04:49:23;5.15;;;2.20;;
44137;SDS011;29800;55.942;37.314;2023-07-29T04:51:49;4.10;;;2.10;;
44137;SDS011;29800;55.942;37.314;2023-07-29T04:54:15;3.05;;;1.90;;
44137;SDS011;29800;55.942;37.314;2023-07-29T04:56:41;3.75;;;2.20;;
44137;SDS011;29800;55.942;37.314;2023-07-29T04:59:08;4.00;;;2.20;;
44137;SDS011;29800;55.942;37.314;2023-07-29T05:01:35;5.15;;;2.20;;
44137;SDS011;29800;55.942;37.314;2023-07-29T05:04:01;3.63;;;2.30;;
44137;SDS011;29800;55.942;37.314;2023-07-29T05:06:28;4.28;;;2.20;;
44137;SDS011;29800;55.942;37.314;2023-07-29T05:08:56;5.47;;;2.08;;
44137;SDS011;29800;55.942;37.314;2023-07-29T05:11:24;3.30;;;2.22;;
44137;SDS011;29800;55.942;37.314;2023-07-29T05:13:53;3.78;;;2.30;;
44137;SDS011;29800;55.942;37.314;2023-07-29T05:16:19;3.28;;;2.30;;
44137;SDS011;29800;55.942;37.314;2023-07-29T05:18:46;3.30;;;1.98;;
44137;SDS011;29800;55.942;37.314;2023-07-29T05:21:12;4.72;;;2.22;;
44137;SDS011;29800;55.942;37.314;2023-07-29T05:23:41;3.70;;;2.28;;
44137;SDS011;29800;55.942;37.314;2023-07-29T05:26:07;5.47;;;2.17;;
44137;SDS011;29800;55.942;37.314;2023-07-29T05:28:33;5.03;;;2.80;;
44137;SDS011;29800;55.942;37.314;2023-07-29T05:31:00;3.35;;;2.40;;
44137;SDS011;29800;55.942;37.314;2023-07-29T05:33:32;3.65;;;2.50;;
44137;SDS011;29800;55.942;37.314;2023-07-29T05:35:58;6.40;;;2.47;;
44137;SDS011;29800;55.942;37.314;2023-07-29T05:38:25;4.40;;;2.60;;
44137;SDS011;29800;55.942;37.314;2023-07-29T05:40:51;3.28;;;2.13;;
44137;SDS011;29800;55.942;37.314;2023-07-29T05:43:18;5.28;;;2.08;;
44137;SDS011;29800;55.942;37.314;2023-07-29T05:45:44;3.28;;;2.25;;
44137;SDS011;29800;55.942;37.314;2023-07-29T05:48:11;4.45;;;2.45;;
44137;SDS011;29800;55.942;37.314;2023-07-29T05:50:37;8.63;;;3.40;;
44137;SDS011;29800;55.942;37.314;2023-07-29T05:53:03;6.38;;;2.33;;
44137;SDS011;29800;55.942;37.314;2023-07-29T05:55:30;3.58;;;2.22;;
44137;SDS011;29800;55.942;37.314;2023-07-29T05:57:56;4.10;;;2.40;;
44137;SDS011;29800;55.942;37.314;2023-07-29T06:00:23;6.95;;;3.42;;
44137;SDS011;29800;55.942;37.314;2023-07-29T06:02:50;4.35;;;2.17;;
44137;SDS011;29800;55.942;37.314;2023-07-29T06:05:20;3.05;;;2.30;;
44137;SDS011;29800;55.942;37.314;2023-07-29T06:07:46;4.82;;;2.33;;
44137;SDS011;29800;55.942;37.314;2023-07-29T06:10:14;3.97;;;2.25;;
44137;SDS011;29800;55.942;37.314;2023-07-29T06:12:46;5.03;;;2.53;;
44137;SDS011;29800;55.942;37.314;2023-07-29T06:15:14;6.18;;;2.40;;
44137;SDS011;29800;55.942;37.314;2023-07-29T06:17:41;4.63;;;2.30;;
44137;SDS011;29800;55.942;37.314;2023-07-29T06:20:08;4.18;;;2.35;;
44137;SDS011;29800;55.942;37.314;2023-07-29T06:22:35;4.10;;;2.10;;
44137;SDS011;29800;55.942;37.314;2023-07-29T06:25:01;4.72;;;2.40;;
44137;SDS011;29800;55.942;37.314;2023-07-29T06:27:30;14.68;;;4.82;;
44137;SDS011;29800;55.942;37.314;2023-07-29T06:29:56;3.55;;;2.30;;
44137;SDS011;29800;55.942;37.314;2023-07-29T06:32:23;3.72;;;2.20;;
44137;SDS011;29800;55.942;37.314;2023-07-29T06:34:49;5.70;;;2.53;;
44137;SDS011;29800;55.942;37.314;2023-07-29T06:37:17;4.78;;;2.10;;
44137;SDS011;29800;55.942;37.314;2023-07-29T06:39:43;4.90;;;2.30;;
44137;SDS011;29800;55.942;37.314;2023-07-29T06:42:10;3.28;;;2.30;;
44137;SDS011;29800;55.942;37.314;2023-07-29T06:44:37;5.18;;;2.30;;
44137;SDS011;29800;55.942;37.314;2023-07-29T06:47:03;6.30;;;2.28;;
44137;SDS011;29800;55.942;37.314;2023-07-29T06:49:30;3.55;;;2.42;;
44137;SDS011;29800;55.942;37.314;2023-07-29T06:51:57;7.07;;;2.40;;
44137;SDS011;29800;55.942;37.314;2023-07-29T06:54:24;5.88;;;2.50;;
44137;SDS011;29800;55.942;37.314;2023-07-29T06:56:52;6.07;;;2.92;;
44137;SDS011;29800;55.942;37.314;2023-07-29T06:59:18;3.20;;;2.60;;
44137;SDS011;29800;55.942;37.314;2023-07-29T07:01:45;6.32;;;2.50;;
44137;SDS011;29800;55.942;37.314;2023-07-29T07:04:12;4.30;;;2.22;;
44137;SDS011;29800;55.942;37.314;2023-07-29T07:06:38;3.35;;;2.10;;
44137;SDS011;29800;55.942;37.314;2023-07-29T07:09:04;5.85;;;2.47;;
44137;SDS011;29800;55.942;37.314;2023-07-29T07:11:31;3.72;;;2.30;;
44137;SDS011;29800;55.942;37.314;2023-07-29T07:13:57;5.55;;;2.25;;
44137;SDS011;29800;55.942;37.314;2023-07-29T07:16:23;4.75;;;2.80;;
44137;SDS011;29800;55.942;37.314;2023-07-29T07:18:49;3.58;;;2.13;;
44137;SDS011;29800;55.942;37.314;2023-07-29T07:21:16;3.42;;;2.40;;
44137;SDS011;29800;55.942;37.314;2023-07-29T07:23:42;3.58;;;2.42;;
44137;SDS011;29800;55.942;37.314;2023-07-29T07:26:09;3.20;;;2.20;;
44137;SDS011;29800;55.942;37.314;2023-07-29T07:28:35;3.47;;;2.03;;
44137;SDS011;29800;55.942;37.314;2023-07-29T07:31:01;5.20;;;2.90;;
44137;SDS011;29800;55.942;37.314;2023-07-29T07:33:27;4.38;;;2.20;;
44137;SDS011;29800;55.942;37.314;2023-07-29T07:35:54;4.97;;;2.40;;
44137;SDS011;29800;55.942;37.314;2023-07-29T07:38:20;6.55;;;2.40;;
44137;SDS011;29800;55.942;37.314;2023-07-29T07:40:53;8.18;;;2.60;;
44137;SDS011;29800;55.942;37.314;2023-07-29T07:43:23;4.78;;;2.20;;
44137;SDS011;29800;55.942;37.314;2023-07-29T07:45:50;4.93;;;2.10;;
44137;SDS011;29800;55.942;37.314;2023-07-29T07:48:17;4.32;;;2.38;;
44137;SDS011;29800;55.942;37.314;2023-07-29T07:50:45;3.25;;;2.20;;
44137;SDS011;29800;55.942;37.314;2023-07-29T07:53:12;4.97;;;2.67;;
44137;SDS011;29800;55.942;37.314;2023-07-29T07:55:38;4.03;;;2.28;;
44137;SDS011;29800;55.942;37.314;2023-07-29T07:58:05;5.63;;;2.28;;
44137;SDS011;29800;55.942;37.314;2023-07-29T08:00:31;4.35;;;2.53;;
44137;SDS011;29800;55.942;37.314;2023-07-29T08:02:57;4.68;;;2.42;;
44137;SDS011;29800;55.942;37.314;2023-07-29T08:05:23;4.25;;;2.58;;
44137;SDS011;29800;55.942;37.314;2023-07-29T08:07:49;9.10;;;2.28;;
44137;SDS011;29800;55.942;37.314;2023-07-29T08:10:16;5.88;;;2.70;;
44137;SDS011;29800;55.942;37.314;2023-07-29T08:12:42;6.18;;;2.70;;
44137;SDS011;29800;55.942;37.314;2023-07-29T08:15:08;5.05;;;2.50;;
44137;SDS011;29800;55.942;37.314;2023-07-29T08:17:35;3.40;;;2.40;;
44137;SDS011;29800;55.942;37.314;2023-07-29T08:20:01;3.75;;;2.28;;
44137;SDS011;29800;55.942;37.314;2023-07-29T08:22:30;3.50;;;2.72;;
44137;SDS011;29800;55.942;37.314;2023-07-29T08:24:57;5.20;;;2.90;;
44137;SDS011;29800;55.942;37.314;2023-07-29T08:27:23;5.43;;;3.05;;
44137;SDS011;29800;55.942;37.314;2023-07-29T08:29:49;4.90;;;3.03;;
44137;SDS011;29800;55.942;37.314;2023-07-29T08:32:16;6.03;;;3.40;;
44137;SDS011;29800;55.942;37.314;2023-07-29T08:34:42;8.05;;;2.80;;
44137;SDS011;29800;55.942;37.314;2023-07-29T08:37:08;3.97;;;2.92;;
44137;SDS011;29800;55.942;37.314;2023-07-29T08:39:35;7.65;;;3.20;;
44137;SDS011;29800;55.942;37.314;2023-07-29T08:42:02;5.20;;;2.70;;
44137;SDS011;29800;55.942;37.314;2023-07-29T08:44:39;4.50;;;2.58;;
44137;SDS011;29800;55.942;37.314;2023-07-29T08:47:09;4.80;;;2.72;;
44137;SDS011;29800;55.942;37.314;2023-07-29T08:49:37;5.18;;;2.95;;
44137;SDS011;29800;55.942;37.314;2023-07-29T08:52:04;5.10;;;3.15;;
44137;SDS011;29800;55.942;37.314;2023-07-29T08:54:32;4.38;;;3.10;;
44137;SDS011;29800;55.942;37.314;2023-07-29T08:56:59;6.90;;;3.08;;
44137;SDS011;29800;55.942;37.314;2023-07-29T08:59:25;6.60;;;2.78;;
44137;SDS011;29800;55.942;37.314;2023-07-29T09:01:53;5.20;;;3.28;;
44137;SDS011;29800;55.942;37.314;2023-07-29T09:04:23;4.80;;;2.72;;
44137;SDS011;29800;55.942;37.314;2023-07-29T09:06:51;4.60;;;2.95;;
44137;SDS011;29800;55.942;37.314;2023-07-29T09:09:17;4.88;;;3.10;;
44137;SDS011;29800;55.942;37.314;2023-07-29T09:11:43;6.22;;;3.05;;
44137;SDS011;29800;55.942;37.314;2023-07-29T09:14:10;5.45;;;3.33;;
44137;SDS011;29800;55.942;37.314;2023-07-29T09:16:36;4.07;;;3.33;;
44137;SDS011;29800;55.942;37.314;2023-07-29T09:19:04;5.43;;;2.83;;
44137;SDS011;29800;55.942;37.314;2023-07-29T09:21:31;5.70;;;3.47;;
44137;SDS011;29800;55.942;37.314;2023-07-29T09:23:58;4.63;;;3.05;;
44137;SDS011;29800;55.942;37.314;2023-07-29T09:26:29;5.55;;;2.97;;
44137;SDS011;29800;55.942;37.314;2023-07-29T09:28:55;6.60;;;2.92;;
44137;SDS011;29800;55.942;37.314;2023-07-29T09:31:23;3.40;;;2.60;;
44137;SDS011;29800;55.942;37.314;2023-07-29T09:33:58;3.25;;;2.30;;
44137;SDS011;29800;55.942;37.314;2023-07-29T09:36:26;3.38;;;2.30;;
44137;SDS011;29800;55.942;37.314;2023-07-29T09:38:53;4.60;;;2.30;;
44137;SDS011;29800;55.942;37.314;2023-07-29T09:41:21;4.35;;;2.42;;
44137;SDS011;29800;55.942;37.314;2023-07-29T09:43:59;3.10;;;2.20;;
44137;SDS011;29800;55.942;37.314;2023-07-29T09:46:32;3.85;;;2.65;;
44137;SDS011;29800;55.942;37.314;2023-07-29T09:49:01;4.15;;;2.30;;
44137;SDS011;29800;55.942;37.314;2023-07-29T09:51:28;4.05;;;2.25;;
44137;SDS011;29800;55.942;37.314;2023-07-29T09:53:55;4.78;;;2.30;;
44137;SDS011;29800;55.942;37.314;2023-07-29T09:56:25;4.20;;;2.17;;
44137;SDS011;29800;55.942;37.314;2023-07-29T09:58:52;4.70;;;1.83;;
44137;SDS011;29800;55.942;37.314;2023-07-29T10:01:21;5.30;;;2.03;;
44137;SDS011;29800;55.942;37.314;2023-07-29T10:03:47;3.28;;;1.83;;
44137;SDS011;29800;55.942;37.314;2023-07-29T10:06:15;3.10;;;1.90;;
44137;SDS011;29800;55.942;37.314;2023-07-29T10:08:43;3.08;;;1.90;;
44137;SDS011;29800;55.942;37.314;2023-07-29T10:11:10;4.47;;;2.10;;
44137;SDS011;29800;55.942;37.314;2023-07-29T10:13:37;4.28;;;1.92;;
44137;SDS011;29800;55.942;37.314;2023-07-29T10:16:05;3.95;;;2.28;;
44137;SDS011;29800;55.942;37.314;2023-07-29T10:18:32;5.20;;;2.10;;
44137;SDS011;29800;55.942;37.314;2023-07-29T10:21:01;4.65;;;2.13;;
44137;SDS011;29800;55.942;37.314;2023-07-29T10:23:28;6.07;;;2.28;;
44137;SDS011;29800;55.942;37.314;2023-07-29T10:26:07;4.55;;;1.90;;
44137;SDS011;29800;55.942;37.314;2023-07-29T10:28:39;4.68;;;1.65;;
44137;SDS011;29800;55.942;37.314;2023-07-29T10:31:07;4.80;;;1.95;;
44137;SDS011;29800;55.942;37.314;2023-07-29T10:33:34;3.90;;;1.80;;
44137;SDS011;29800;55.942;37.314;2023-07-29T10:36:00;3.85;;;1.95;;
44137;SDS011;29800;55.942;37.314;2023-07-29T10:38:28;3.97;;;1.80;;
44137;SDS011;29800;55.942;37.314;2023-07-29T10:40:56;2.95;;;1.60;;
44137;SDS011;29800;55.942;37.314;2023-07-29T10:43:25;3.72;;;1.77;;
44137;SDS011;29800;55.942;37.314;2023-07-29T10:45:52;4.35;;;1.88;;
44137;SDS011;29800;55.942;37.314;2023-07-29T10:53:57;4.43;;;2.05;;
44137;SDS011;29800;55.942;37.314;2023-07-29T10:56:31;3.95;;;1.48;;
44137;SDS011;29800;55.942;37.314;2023-07-29T11:01:39;2.25;;;1.50;;
44137;SDS011;29800;55.942;37.314;2023-07-29T11:15:01;4.80;;;1.60;;
44137;SDS011;29800;55.942;37.314;2023-07-29T11:17:31;2.63;;;1.50;;
44137;SDS011;29800;55.942;37.314;2023-07-29T11:20:00;3.38;;;1.60;;
44137;SDS011;29800;55.942;37.314;2023-07-29T11:22:30;3.97;;;1.65;;
44137;SDS011;29800;55.942;37.314;2023-07-29T11:24:57;5.65;;;1.80;;
44137;SDS011;29800;55.942;37.314;2023-07-29T11:27:23;5.18;;;1.70;;
44137;SDS011;29800;55.942;37.314;2023-07-29T11:29:50;5.18;;;1.50;;
44137;SDS011;29800;55.942;37.314;2023-07-29T11:32:16;2.63;;;1.40;;
44137;SDS011;29800;55.942;37.314;2023-07-29T11:34:42;3.45;;;1.60;;
44137;SDS011;29800;55.942;37.314;2023-07-29T11:37:10;2.67;;;1.50;;
44137;SDS011;29800;55.942;37.314;2023-07-29T11:39:40;3.60;;;1.48;;
44137;SDS011;29800;55.942;37.314;2023-07-29T11:42:10;3.33;;;1.75;;
44137;SDS011;29800;55.942;37.314;2023-07-29T11:44:37;3.55;;;1.70;;
44137;SDS011;29800;55.942;37.314;2023-07-29T11:47:07;3.95;;;1.70;;
44137;SDS011;29800;55.942;37.314;2023-07-29T11:49:34;4.00;;;1.67;;
44137;SDS011;29800;55.942;37.314;2023-07-29T11:52:02;4.13;;;1.70;;
44137;SDS011;29800;55.942;37.314;2023-07-29T11:54:29;3.25;;;1.52;;
44137;SDS011;29800;55.942;37.314;2023-07-29T11:56:56;4.35;;;1.83;;
44137;SDS011;29800;55.942;37.314;2023-07-29T11:59:23;3.63;;;1.83;;
44137;SDS011;29800;55.942;37.314;2023-07-29T12:01:49;5.65;;;2.10;;
44137;SDS011;29800;55.942;37.314;2023-07-29T12:04:15;4.50;;;2.00;;
44137;SDS011;29800;55.942;37.314;2023-07-29T12:06:42;3.30;;;1.83;;
44137;SDS011;29800;55.942;37.314;2023-07-29T12:09:10;4.78;;;1.98;;
44137;SDS011;29800;55.942;37.314;2023-07-29T12:11:39;5.97;;;2.58;;
44137;SDS011;29800;55.942;37.314;2023-07-29T12:14:07;4.47;;;1.80;;
44137;SDS011;29800;55.942;37.314;2023-07-29T12:16:41;3.67;;;1.90;;
44137;SDS011;29800;55.942;37.314;2023-07-29T12:19:08;5.50;;;1.92;;
44137;SDS011;29800;55.942;37.314;2023-07-29T12:21:37;2.95;;;2.08;;
44137;SDS011;29800;55.942;37.314;2023-07-29T12:24:04;3.33;;;1.67;;
44137;SDS011;29800;55.942;37.314;2023-07-29T12:26:30;5.22;;;1.90;;
44137;SDS011;29800;55.942;37.314;2023-07-29T12:28:57;3.42;;;1.70;;
44137;SDS011;29800;55.942;37.314;2023-07-29T12:31:32;4.63;;;1.65;;
44137;SDS011;29800;55.942;37.314;2023-07-29T12:34:01;4.75;;;1.80;;
44137;SDS011;29800;55.942;37.314;2023-07-29T12:36:41;4.85;;;1.92;;
44137;SDS011;29800;55.942;37.314;2023-07-29T12:39:21;4.38;;;2.25;;
44137;SDS011;29800;55.942;37.314;2023-07-29T12:41:49;4.68;;;1.65;;
44137;SDS011;29800;55.942;37.314;2023-07-29T12:44:17;8.45;;;1.90;;
44137;SDS011;29800;55.942;37.314;2023-07-29T12:46:44;4.72;;;1.65;;
44137;SDS011;29800;55.942;37.314;2023-07-29T12:49:10;3.85;;;2.17;;
44137;SDS011;29800;55.942;37.314;2023-07-29T12:51:37;4.05;;;1.90;;
44137;SDS011;29800;55.942;37.314;2023-07-29T12:54:03;5.95;;;2.53;;
44137;SDS011;29800;55.942;37.314;2023-07-29T12:56:30;7.05;;;2.60;;
44137;SDS011;29800;55.942;37.314;2023-07-29T12:58:58;5.03;;;2.05;;
44137;SDS011;29800;55.942;37.314;2023-07-29T13:01:25;6.47;;;2.00;;
44137;SDS011;29800;55.942;37.314;2023-07-29T13:03:52;8.38;;;2.15;;
44137;SDS011;29800;55.942;37.314;2023-07-29T13:06:19;4.00;;;2.00;;
44137;SDS011;29800;55.942;37.314;2023-07-29T13:08:46;4.40;;;2.00;;
44137;SDS011;29800;55.942;37.314;2023-07-29T13:11:13;6.90;;;2.42;;
44137;SDS011;29800;55.942;37.314;2023-07-29T13:13:40;4.50;;;1.90;;
44137;SDS011;29800;55.942;37.314;2023-07-29T13:16:07;3.70;;;1.95;;
44137;SDS011;29800;55.942;37.314;2023-07-29T13:18:33;6.43;;;1.95;;
44137;SDS011;29800;55.942;37.314;2023-07-29T13:21:00;4.55;;;2.15;;
44137;SDS011;29800;55.942;37.314;2023-07-29T13:23:26;4.05;;;2.00;;
44137;SDS011;29800;55.942;37.314;2023-07-29T13:25:55;5.78;;;1.90;;
44137;SDS011;29800;55.942;37.314;2023-07-29T13:28:23;5.78;;;1.65;;
44137;SDS011;29800;55.942;37.314;2023-07-29T13:30:49;6.10;;;1.75;;
44137;SDS011;29800;55.942;37.314;2023-07-29T13:33:16;5.40;;;2.13;;
44137;SDS011;29800;55.942;37.314;2023-07-29T13:35:42;5.18;;;2.40;;
44137;SDS011;29800;55.942;37.314;2023-07-29T13:38:09;4.57;;;2.10;;
44137;SDS011;29800;55.942;37.314;2023-07-29T13:40:36;4.78;;;2.15;;
44137;SDS011;29800;55.942;37.314;2023-07-29T13:43:03;5.57;;;1.95;;
44137;SDS011;29800;55.942;37.314;2023-07-29T13:45:29;5.22;;;2.90;;
44137;SDS011;29800;55.942;37.314;2023-07-29T13:47:56;7.43;;;2.45;;
44137;SDS011;29800;55.942;37.314;2023-07-29T13:50:23;4.63;;;2.25;;
44137;SDS011;29800;55.942;37.314;2023-07-29T13:52:49;4.82;;;2.38;;
44137;SDS011;29800;55.942;37.314;2023-07-29T13:55:15;5.70;;;2.60;;
44137;SDS011;29800;55.942;37.314;2023-07-29T13:57:42;4.65;;;2.20;;
44137;SDS011;29800;55.942;37.314;2023-07-29T14:00:08;3.80;;;2.53;;
44137;SDS011;29800;55.942;37.314;2023-07-29T14:02:37;6.47;;;2.60;;
44137;SDS011;29800;55.942;37.314;2023-07-29T14:05:04;4.82;;;2.35;;
44137;SDS011;29800;55.942;37.314;2023-07-29T14:07:33;4.40;;;2.13;;
44137;SDS011;29800;55.942;37.314;2023-07-29T14:09:59;8.18;;;2.00;;
44137;SDS011;29800;55.942;37.314;2023-07-29T14:12:27;4.65;;;2.22;;
44137;SDS011;29800;55.942;37.314;2023-07-29T14:14:53;7.43;;;2.35;;
44137;SDS011;29800;55.942;37.314;2023-07-29T14:17:20;5.30;;;2.50;;
44137;SDS011;29800;55.942;37.314;2023-07-29T14:19:46;4.30;;;2.38;;
44137;SDS011;29800;55.942;37.314;2023-07-29T14:22:12;4.43;;;2.03;;
44137;SDS011;29800;55.942;37.314;2023-07-29T14:24:39;4.00;;;1.90;;
44137;SDS011;29800;55.942;37.314;2023-07-29T14:27:05;10.55;;;1.95;;
44137;SDS011;29800;55.942;37.314;2023-07-29T14:29:31;5.35;;;1.90;;
44137;SDS011;29800;55.942;37.314;2023-07-29T14:31:58;7.88;;;2.30;;
44137;SDS011;29800;55.942;37.314;2023-07-29T14:34:24;7.18;;;2.30;;
44137;SDS011;29800;55.942;37.314;2023-07-29T14:36:50;4.72;;;2.05;;
44137;SDS011;29800;55.942;37.314;2023-07-29T14:39:16;5.45;;;1.98;;
44137;SDS011;29800;55.942;37.314;2023-07-29T14:41:43;5.07;;;2.15;;
44137;SDS011;29800;55.942;37.314;2023-07-29T14:44:09;3.90;;;2.10;;
44137;SDS011;29800;55.942;37.314;2023-07-29T14:46:35;6.25;;;2.47;;
44137;SDS011;29800;55.942;37.314;2023-07-29T14:49:02;6.18;;;1.88;;
44137;SDS011;29800;55.942;37.314;2023-07-29T14:51:28;3.70;;;2.00;;
44137;SDS011;29800;55.942;37.314;2023-07-29T14:53:55;6.20;;;1.98;;
44137;SDS011;29800;55.942;37.314;2023-07-29T14:56:21;6.88;;;2.30;;
44137;SDS011;29800;55.942;37.314;2023-07-29T14:58:47;4.78;;;2.30;;
44137;SDS011;29800;55.942;37.314;2023-07-29T15:01:16;5.15;;;2.10;;